Página principal
METAR-TAF:

METAR-TAF

Aeroportos :

Chugiak, Alasca, Estados Unidos

latitude: 61-25N, longitude: 149-31W, altura: 29 m

Observação actual do tempo

O boletim foi feito há 34 minutos, às 20:56 UTC
Vento 4 kt com direcção variável
Temperatura 22°C
Humidade 43%
Pressão 1017 hPa
Visibilidade: 16.1 km
Céu limpo

METAR: PABV 152056Z AUTO VRB04KT 10SM CLR 22/09 A3004 RMK AO2 SLP176 T02170094 56008

Hora: 13:30 (21:30 UTC)


TAF: em falta

Observações e previsões do tempo de mais de 4000 aeroportos (mensagens METAR e TAF).

As estações disponíveis são os pontos amarelos e vermelhos sobre o mapa.

Mova o rato sobre o mapa para ver o nome da estação.

Depois clique no ponto para visualizar as observações e previsões meteorológicas.

Para alterar o mapa : clique nos botões verdes com uma cruz preta para aumentar o zoom; no botão verde com uma pitada de zoom; ou nas setas verdes para mapas adjacentes.


METAR-TAF: